Time;durP1;ratioP1;P1;durP2;ratioP2;P2;SDS_P1;SDS_P2;PMS_P1;PMS_P2;Temp;Humidity;BMP_temperature;BMP_pressure;BME280_temperature;BME280_humidity;BME280_pressure;Samples;Min_cycle;Max_cycle;Signal;HPM_P1;HPM_P2
2023/04/24 00:01:00;;;;;;;0.20;0.20;;;;;;;18.87;44.64;99746.31;5117929;28;20042;-45
2023/04/24 00:03:27;;;;;;;0.20;0.20;;;;;;;18.86;44.92;99741.94;5099113;28;20047;-45
2023/04/24 00:05:54;;;;;;;0.30;0.30;;;;;;;18.86;44.79;99742.75;5117138;28;20062;-44
2023/04/24 00:08:21;;;;;;;0.30;0.30;;;;;;;18.86;44.64;99745.50;5095657;28;20039;-47
2023/04/24 00:10:46;;;;;;;0.30;0.30;;;;;;;18.87;44.63;99740.81;5096991;28;20821;-48
2023/04/24 00:13:12;;;;;;;0.20;0.20;;;;;;;18.87;44.88;99738.91;5107040;28;20047;-46
2023/04/24 00:15:38;;;;;;;0.30;0.30;;;;;;;18.87;44.49;99747.19;5117450;28;20054;-45
2023/04/24 00:18:03;;;;;;;0.20;0.20;;;;;;;18.86;44.95;99748.28;5116824;28;20054;-46
2023/04/24 00:20:29;;;;;;;0.20;0.20;;;;;;;18.86;44.74;99753.78;5117339;28;20050;-48
2023/04/24 00:22:55;;;;;;;0.30;0.30;;;;;;;18.87;44.62;99754.59;5117846;28;20096;-45
2023/04/24 00:25:21;;;;;;;0.20;0.20;;;;;;;18.87;44.60;99751.84;5116904;28;20519;-45
2023/04/24 00:27:47;;;;;;;0.30;0.30;;;;;;;18.86;44.71;99751.03;5117129;28;20244;-44
2023/04/24 00:30:13;;;;;;;0.20;0.20;;;;;;;18.87;44.69;99746.31;5117212;28;20039;-45
2023/04/24 00:32:38;;;;;;;0.30;0.30;;;;;;;18.87;44.63;99765.63;5117144;27;20554;-46
2023/04/24 00:35:05;;;;;;;0.20;0.20;;;;;;;18.87;44.83;99760.13;5098770;28;20880;-45
2023/04/24 00:37:31;;;;;;;0.20;0.20;;;;;;;18.86;44.62;99762.06;5116308;28;20043;-45
2023/04/24 00:39:57;;;;;;;0.30;0.30;;;;;;;18.87;44.69;99765.63;5129389;27;20526;-45
2023/04/24 00:42:23;;;;;;;0.30;0.30;;;;;;;18.86;44.83;99766.78;5114566;28;20054;-45
2023/04/24 00:44:48;;;;;;;0.30;0.30;;;;;;;18.87;44.64;99765.63;5117244;28;20212;-46
2023/04/24 00:47:14;;;;;;;0.20;0.20;;;;;;;18.86;44.99;99759.31;5116228;28;20450;-45
2023/04/24 00:49:40;;;;;;;0.20;0.20;;;;;;;18.86;44.86;99762.06;5096359;28;20055;-45
2023/04/24 00:52:08;;;;;;;0.30;0.30;;;;;;;18.86;44.72;99758.50;5096217;28;20139;-46
2023/04/24 00:54:35;;;;;;;0.20;0.20;;;;;;;18.86;44.68;99764.00;5096362;28;20048;-46
2023/04/24 00:57:02;;;;;;;0.20;0.20;;;;;;;18.85;44.85;99759.63;5110370;28;20055;-45
2023/04/24 00:59:28;;;;;;;0.30;0.30;;;;;;;18.86;44.64;99766.78;5081196;28;20051;-46
2023/04/24 01:01:54;;;;;;;0.20;0.20;;;;;;;18.86;44.87;99761.25;5116537;28;20053;-46
2023/04/24 01:04:20;;;;;;;0.30;0.30;;;;;;;18.86;44.68;99761.25;5117267;28;20051;-47
2023/04/24 01:06:46;;;;;;;0.30;0.30;;;;;;;18.86;44.66;99770.34;5116098;28;20411;-46
2023/04/24 01:09:12;;;;;;;0.30;0.30;;;;;;;18.85;45.06;99760.44;5115585;27;20502;-45
2023/04/24 01:11:38;;;;;;;0.20;0.20;;;;;;;18.86;44.68;99764.00;5098293;28;20055;-46
2023/04/24 01:14:03;;;;;;;0.20;0.20;;;;;;;18.85;44.77;99754.94;5102499;28;20043;-47
2023/04/24 01:16:29;;;;;;;0.30;0.30;;;;;;;18.86;44.79;99752.97;5116474;28;20078;-45
2023/04/24 01:18:55;;;;;;;0.30;0.30;;;;;;;18.86;44.89;99766.78;5094384;28;20044;-45
2023/04/24 01:21:21;;;;;;;0.20;0.20;;;;;;;18.86;44.97;99767.59;5095377;28;20316;-46
2023/04/24 01:23:47;;;;;;;0.30;0.30;;;;;;;18.85;44.92;99765.97;5095540;28;20052;-46
2023/04/24 01:26:16;;;;;;;0.30;0.30;;;;;;;18.85;44.88;99745.84;5102680;28;20039;-44
2023/04/24 01:28:41;;;;;;;0.20;0.20;;;;;;;18.86;44.85;99755.72;5115798;28;20104;-45
2023/04/24 01:31:07;;;;;;;0.30;0.30;;;;;;;18.86;44.61;99764.00;5115464;27;20500;-46
2023/04/24 01:33:33;;;;;;;0.30;0.30;;;;;;;18.85;44.70;99757.69;5115620;28;20452;-44
2023/04/24 01:35:59;;;;;;;0.30;0.30;;;;;;;18.86;44.70;99755.72;5093916;28;20601;-46
2023/04/24 01:38:25;;;;;;;0.20;0.20;;;;;;;18.86;44.70;99747.47;5104837;27;20377;-45
2023/04/24 01:40:51;;;;;;;0.20;0.20;;;;;;;18.86;44.92;99752.97;5135747;27;20872;-47
2023/04/24 01:43:16;;;;;;;0.20;0.20;;;;;;;18.85;44.89;99757.69;5124076;27;20282;-45
2023/04/24 01:45:42;;;;;;;0.30;0.30;;;;;;;18.85;44.73;99760.44;5114399;28;20066;-45
2023/04/24 01:48:08;;;;;;;0.20;0.20;;;;;;;18.85;44.66;99757.69;5115103;28;20050;-45
2023/04/24 01:50:34;;;;;;;0.30;0.30;;;;;;;18.85;44.81;99760.44;5115056;28;20499;-45
2023/04/24 01:52:59;;;;;;;0.30;0.30;;;;;;;18.87;44.92;99762.88;5115320;28;20058;-47
2023/04/24 01:55:25;;;;;;;0.22;0.22;;;;;;;18.85;44.84;99763.19;5115480;28;20483;-47
2023/04/24 01:57:52;;;;;;;0.30;0.30;;;;;;;18.86;44.95;99764.81;5093298;28;20105;-46
2023/04/24 02:00:18;;;;;;;0.30;0.30;;;;;;;18.86;44.93;99766.78;5093264;28;20411;-45
2023/04/24 02:02:44;;;;;;;0.30;0.30;;;;;;;18.87;45.05;99773.91;5094973;28;20047;-46
2023/04/24 02:05:13;;;;;;;0.30;0.30;;;;;;;18.86;44.67;99769.53;5095511;28;20098;-45
2023/04/24 02:07:39;;;;;;;0.30;0.30;;;;;;;18.86;44.81;99766.78;5115209;28;20051;-46
2023/04/24 02:10:05;;;;;;;0.20;0.20;;;;;;;18.84;44.77;99764.34;5115767;28;20529;-46
2023/04/24 02:12:31;;;;;;;0.20;0.20;;;;;;;18.85;44.68;99757.69;5116047;28;20043;-45
2023/04/24 02:14:57;;;;;;;0.30;0.30;;;;;;;18.86;44.78;99756.56;5097601;28;20050;-46
2023/04/24 02:17:22;;;;;;;0.20;0.20;;;;;;;18.86;44.79;99755.72;5115472;27;20423;-48
2023/04/24 02:19:48;;;;;;;0.20;0.20;;;;;;;18.86;44.95;99762.06;5115814;27;20475;-46
2023/04/24 02:22:14;;;;;;;0.30;0.30;;;;;;;18.86;44.99;99758.50;5097018;28;20054;-47
2023/04/24 02:24:40;;;;;;;0.20;0.20;;;;;;;18.86;44.71;99762.06;5115490;28;20070;-44
2023/04/24 02:27:06;;;;;;;0.20;0.20;;;;;;;18.86;44.63;99752.97;5115825;28;20406;-45
2023/04/24 02:29:31;;;;;;;0.22;0.22;;;;;;;18.85;44.71;99757.69;5115705;28;20051;-45
2023/04/24 02:31:57;;;;;;;0.30;0.30;;;;;;;18.85;44.94;99760.44;5115541;27;20452;-45
2023/04/24 02:34:23;;;;;;;0.30;0.30;;;;;;;18.85;44.92;99759.63;5115376;28;20047;-44
2023/04/24 02:36:49;;;;;;;0.20;0.20;;;;;;;18.85;45.00;99754.09;5115957;28;20483;-45
2023/04/24 02:39:16;;;;;;;0.20;0.20;;;;;;;18.86;44.65;99764.00;5089801;28;20162;-45
2023/04/24 02:41:42;;;;;;;0.20;0.20;;;;;;;18.86;44.84;99755.72;5095024;28;20043;-45
2023/04/24 02:44:08;;;;;;;0.30;0.30;;;;;;;18.85;44.63;99763.19;5098322;28;20043;-45
2023/04/24 02:46:34;;;;;;;0.30;0.30;;;;;;;18.86;45.02;99764.00;5114717;28;20051;-45
2023/04/24 02:49:00;;;;;;;0.20;0.20;;;;;;;18.85;44.68;99763.19;5116120;27;20487;-46
2023/04/24 02:51:26;;;;;;;0.20;0.20;;;;;;;18.86;44.89;99764.81;5114797;28;20043;-45
2023/04/24 02:53:52;;;;;;;0.30;0.30;;;;;;;18.85;44.94;99763.19;5097348;28;20222;-46
2023/04/24 02:56:18;;;;;;;0.30;0.30;;;;;;;18.85;44.82;99765.97;5115712;28;20100;-46
2023/04/24 02:58:44;;;;;;;0.30;0.30;;;;;;;18.86;44.81;99769.53;5115550;28;20290;-45
2023/04/24 03:01:09;;;;;;;0.30;0.30;;;;;;;18.85;44.99;99765.16;5114800;28;20411;-47
2023/04/24 03:03:36;;;;;;;0.20;0.20;;;;;;;18.85;44.83;99767.91;5096734;28;20085;-46
2023/04/24 03:06:02;;;;;;;0.30;0.30;;;;;;;18.86;45.08;99772.28;5114791;28;20047;-48
2023/04/24 03:08:28;;;;;;;0.20;0.20;;;;;;;18.85;44.67;99785.25;5115761;28;20047;-46
2023/04/24 03:10:53;;;;;;;0.28;0.28;;;;;;;18.86;44.78;99786.91;5115828;28;20035;-47
2023/04/24 03:13:19;;;;;;;0.22;0.22;;;;;;;18.85;44.97;99773.41;5096220;28;20689;-45
2023/04/24 03:15:46;;;;;;;0.20;0.20;;;;;;;18.85;44.70;99774.22;5114943;28;20047;-46
2023/04/24 03:18:12;;;;;;;0.30;0.30;;;;;;;18.85;45.01;99781.69;5114553;28;20043;-47
2023/04/24 03:20:37;;;;;;;0.30;0.30;;;;;;;18.85;44.85;99784.44;5114965;28;20058;-46
2023/04/24 03:23:03;;;;;;;0.20;0.20;;;;;;;18.84;44.65;99783.63;5114869;28;20615;-45
2023/04/24 03:25:29;;;;;;;0.20;0.20;;;;;;;18.85;44.79;99788.03;5114247;28;20099;-45
2023/04/24 03:27:55;;;;;;;0.20;0.20;;;;;;;18.85;44.92;99788.03;5114001;28;20057;-45
2023/04/24 03:30:20;;;;;;;0.20;0.20;;;;;;;18.85;44.68;99790.78;5114625;28;20455;-47
2023/04/24 03:32:46;;;;;;;0.25;0.25;;;;;;;18.84;44.87;99791.91;5115463;27;20047;-45
2023/04/24 03:35:12;;;;;;;0.30;0.30;;;;;;;18.85;44.67;99790.78;5117792;28;20051;-46
2023/04/24 03:37:37;;;;;;;0.20;0.20;;;;;;;18.85;44.70;99795.50;5113281;27;20063;-45
2023/04/24 03:40:04;;;;;;;0.20;0.20;;;;;;;18.86;44.88;99797.94;5117829;28;20419;-46
2023/04/24 03:42:29;;;;;;;0.20;0.20;;;;;;;18.85;44.74;99795.50;5117362;28;20411;-46
2023/04/24 03:44:55;;;;;;;0.30;0.30;;;;;;;18.85;44.74;99793.53;5118072;28;20491;-46
2023/04/24 03:47:21;;;;;;;0.28;0.28;;;;;;;18.86;44.95;99786.09;5117079;28;20043;-46
2023/04/24 03:49:46;;;;;;;0.30;0.30;;;;;;;18.85;45.00;99796.31;5118211;28;20493;-44
2023/04/24 03:52:12;;;;;;;0.20;0.20;;;;;;;18.85;44.65;99789.97;5117548;28;20507;-45
2023/04/24 03:54:38;;;;;;;0.30;0.30;;;;;;;18.85;44.90;99792.72;5117381;28;20065;-45
2023/04/24 03:57:04;;;;;;;0.20;0.20;;;;;;;18.84;44.82;99783.63;5117765;28;20131;-45
2023/04/24 03:59:30;;;;;;;0.20;0.20;;;;;;;18.86;44.88;99794.34;5117774;28;20202;-45
2023/04/24 04:01:56;;;;;;;0.20;0.20;;;;;;;18.85;44.70;99792.72;5117680;28;20146;-49
2023/04/24 04:04:21;;;;;;;0.30;0.30;;;;;;;18.85;44.79;99795.50;5117581;28;20047;-48
2023/04/24 04:06:47;;;;;;;0.20;0.20;;;;;;;18.85;45.06;99792.72;5117536;28;20051;-46
2023/04/24 04:09:13;;;;;;;0.20;0.20;;;;;;;18.84;44.81;99791.91;5117112;28;20412;-46
2023/04/24 04:11:39;;;;;;;0.20;0.20;;;;;;;18.85;44.81;99790.78;5099747;28;20048;-47
2023/04/24 04:14:05;;;;;;;0.30;0.30;;;;;;;18.85;44.99;99792.72;5117442;28;20039;-45
2023/04/24 04:16:31;;;;;;;0.20;0.20;;;;;;;18.85;44.87;99796.31;5117484;28;20050;-47
2023/04/24 04:18:56;;;;;;;0.20;0.20;;;;;;;18.85;44.77;99796.31;5116954;28;20743;-46
2023/04/24 04:21:22;;;;;;;0.20;0.20;;;;;;;18.85;44.72;99799.06;5117117;28;20453;-45
2023/04/24 04:23:48;;;;;;;0.20;0.20;;;;;;;18.86;44.80;99802.63;5117237;28;20113;-46
2023/04/24 04:26:14;;;;;;;0.20;0.20;;;;;;;18.85;44.90;99801.00;5116881;28;20051;-48
2023/04/24 04:28:39;;;;;;;0.30;0.30;;;;;;;18.86;45.25;99797.13;5117179;28;20043;-46
2023/04/24 04:31:07;;;;;;;0.30;0.30;;;;;;;18.86;44.84;99802.63;5117199;27;20039;-45
2023/04/24 04:33:33;;;;;;;0.22;0.22;;;;;;;18.86;44.92;99802.63;5099382;28;20075;-46
2023/04/24 04:35:59;;;;;;;0.30;0.30;;;;;;;18.84;44.79;99802.94;5115860;28;20078;-45
2023/04/24 04:38:29;;;;;;;0.20;0.20;;;;;;;18.85;45.24;99815.59;5098025;28;20062;-46
2023/04/24 04:40:56;;;;;;;0.20;0.20;;;;;;;18.85;44.96;99812.84;5112105;28;20062;-46
2023/04/24 04:43:24;;;;;;;0.20;0.20;;;;;;;18.84;45.02;99821.44;5108470;27;20285;-47
2023/04/24 04:45:51;;;;;;;0.20;0.20;;;;;;;18.85;44.93;99821.13;5115013;28;20102;-47
2023/04/24 04:48:17;;;;;;;0.20;0.20;;;;;;;18.85;45.00;99823.06;5100623;28;20051;-46
2023/04/24 04:50:43;;;;;;;0.30;0.30;;;;;;;18.85;44.94;99828.59;5116253;27;20074;-47
2023/04/24 04:53:08;;;;;;;0.28;0.28;;;;;;;18.84;44.97;99825.00;5116099;27;20042;-46
2023/04/24 04:55:34;;;;;;;0.20;0.20;;;;;;;18.84;45.06;99819.50;5114370;28;20067;-46
2023/04/24 04:58:00;;;;;;;0.20;0.20;;;;;;;18.85;44.84;99831.34;5115554;28;20609;-44
2023/04/24 05:00:27;;;;;;;0.30;0.30;;;;;;;18.85;44.83;99820.31;5092960;28;20131;-46
2023/04/24 05:02:52;;;;;;;0.20;0.20;;;;;;;18.85;44.71;99823.06;5110636;27;20047;-45
2023/04/24 05:05:18;;;;;;;0.28;0.28;;;;;;;18.84;45.03;99826.97;5101930;28;20407;-46
2023/04/24 05:07:44;;;;;;;0.30;0.30;;;;;;;18.84;44.76;99833.28;5091101;28;20047;-47
2023/04/24 05:10:10;;;;;;;0.20;0.20;;;;;;;18.84;44.77;99830.53;5095604;28;20096;-48
2023/04/24 05:12:36;;;;;;;0.30;0.30;;;;;;;18.85;44.96;99829.41;5113451;28;20385;-46
2023/04/24 05:15:03;;;;;;;0.30;0.30;;;;;;;18.84;44.91;99833.28;5115553;28;20854;-46
2023/04/24 05:17:28;;;;;;;0.20;0.20;;;;;;;18.85;44.80;99836.88;5106068;28;20047;-45
2023/04/24 05:19:54;;;;;;;0.20;0.20;;;;;;;18.86;45.00;99835.72;5106501;28;20067;-46
2023/04/24 05:22:21;;;;;;;0.20;0.20;;;;;;;18.85;44.81;99834.09;5104002;28;20046;-45
2023/04/24 05:24:47;;;;;;;0.20;0.20;;;;;;;18.85;45.08;99836.88;5108385;28;20044;-46
2023/04/24 05:27:13;;;;;;;0.20;0.20;;;;;;;18.84;44.86;99835.22;5093086;28;20081;-46
2023/04/24 05:29:39;;;;;;;0.28;0.28;;;;;;;18.84;45.01;99833.28;5108977;27;20050;-45
2023/04/24 05:32:05;;;;;;;0.30;0.30;;;;;;;18.85;44.71;99836.88;5095072;28;20188;-47
2023/04/24 05:34:31;;;;;;;0.20;0.20;;;;;;;18.85;44.92;99837.69;5113559;28;20039;-46
2023/04/24 05:36:57;;;;;;;0.20;0.20;;;;;;;18.84;44.82;99833.28;5116984;27;20130;-48
2023/04/24 05:39:24;;;;;;;0.20;0.20;;;;;;;18.85;44.74;99840.44;5094521;28;20142;-45
2023/04/24 05:41:50;;;;;;;0.20;0.20;;;;;;;18.84;44.77;99838.81;5093941;28;20453;-44
2023/04/24 05:44:16;;;;;;;0.20;0.20;;;;;;;18.85;44.97;99836.88;5112586;28;20043;-45
2023/04/24 05:46:42;;;;;;;0.20;0.20;;;;;;;18.84;44.79;99852.59;5095923;28;20062;-47
2023/04/24 05:49:08;;;;;;;0.25;0.25;;;;;;;18.84;44.73;99847.09;5090846;28;20043;-44
2023/04/24 05:51:33;;;;;;;0.20;0.20;;;;;;;18.85;45.09;99845.13;5086281;28;20068;-45
2023/04/24 05:53:59;;;;;;;0.20;0.20;;;;;;;18.86;45.25;99844.81;5099797;27;20049;-46
2023/04/24 05:56:25;;;;;;;0.20;0.20;;;;;;;18.87;44.84;99848.41;5097475;27;20843;-45
2023/04/24 05:58:50;;;;;;;0.20;0.20;;;;;;;18.87;45.36;99845.63;5092286;28;20069;-45
2023/04/24 06:01:16;;;;;;;0.30;0.30;;;;;;;18.86;45.00;99846.78;5076441;28;20369;-46
2023/04/24 06:03:42;;;;;;;0.20;0.20;;;;;;;18.85;44.68;99842.38;5093555;27;20134;-45
2023/04/24 06:06:08;;;;;;;0.20;0.20;;;;;;;18.86;45.17;99858.63;5097243;28;20049;-46
2023/04/24 06:08:35;;;;;;;0.30;0.30;;;;;;;18.85;44.82;99839.63;5094899;27;20400;-45
2023/04/24 06:11:01;;;;;;;0.30;0.30;;;;;;;18.85;44.71;99847.91;5093065;27;20647;-44
2023/04/24 06:13:29;;;;;;;0.25;0.25;;;;;;;18.85;45.05;99834.09;5102211;27;20100;-46
2023/04/24 06:15:55;;;;;;;0.20;0.20;;;;;;;18.84;44.71;99844.31;5106888;28;20043;-49
2023/04/24 06:18:21;;;;;;;0.20;0.20;;;;;;;18.84;44.80;99849.84;5108440;28;20051;-45
2023/04/24 06:20:46;;;;;;;0.20;0.20;;;;;;;18.85;44.67;99853.41;5110835;28;20043;-47
2023/04/24 06:23:12;;;;;;;0.30;0.30;;;;;;;18.84;44.87;99855.34;5105707;28;20049;-45
2023/04/24 06:25:38;;;;;;;0.30;0.30;;;;;;;18.85;44.97;99856.16;5102589;28;20040;-45
2023/04/24 06:28:03;;;;;;;0.20;0.20;;;;;;;18.84;44.86;99857.31;5103009;28;20104;-46
2023/04/24 06:30:29;;;;;;;0.22;0.22;;;;;;;18.84;44.74;99860.88;5111979;28;20070;-45
2023/04/24 06:32:55;;;;;;;0.30;0.30;;;;;;;18.84;44.84;99854.53;5097992;27;20046;-45
2023/04/24 06:35:28;;;;;;;0.30;0.30;;;;;;;18.84;44.74;99858.13;5110461;27;20195;-48
2023/04/24 06:37:55;;;;;;;0.20;0.20;;;;;;;18.83;44.83;99856.50;5093674;28;20069;-47
2023/04/24 06:40:21;;;;;;;0.20;0.20;;;;;;;18.83;44.74;99859.25;5101830;28;20043;-49
2023/04/24 06:42:47;;;;;;;0.20;0.20;;;;;;;18.84;44.74;99855.34;5106325;28;20050;-46
2023/04/24 06:45:13;;;;;;;0.20;0.20;;;;;;;18.84;44.68;99855.34;5108376;28;20039;-46
2023/04/24 06:47:38;;;;;;;0.30;0.30;;;;;;;18.84;44.81;99860.06;5110090;28;20051;-44
2023/04/24 06:50:05;;;;;;;0.30;0.30;;;;;;;18.84;44.83;99860.06;5108386;28;20039;-44
2023/04/24 06:52:32;;;;;;;0.20;0.20;;;;;;;18.84;44.89;99879.38;5102609;28;20045;-46
2023/04/24 06:55:02;;;;;;;0.30;0.30;;;;;;;18.85;45.10;99875.47;5101456;28;20044;-48
2023/04/24 06:57:28;;;;;;;0.20;0.20;;;;;;;18.86;45.26;99872.41;5088117;28;20365;-45
2023/04/24 06:59:54;;;;;;;0.30;0.30;;;;;;;18.86;45.18;99874.34;5079459;28;20152;-46
2023/04/24 07:02:20;;;;;;;0.30;0.30;;;;;;;18.88;45.32;99881.22;5094719;28;20339;-47
2023/04/24 07:04:46;;;;;;;0.20;0.20;;;;;;;18.86;45.66;99864.13;5081531;27;20656;-45
2023/04/24 07:07:13;;;;;;;0.20;0.20;;;;;;;18.86;45.31;99863.31;5086159;28;20058;-44
2023/04/24 07:09:42;;;;;;;0.20;0.20;;;;;;;18.84;44.85;99863.63;5073302;28;20565;-47
2023/04/24 07:12:10;;;;;;;0.25;0.25;;;;;;;18.84;44.77;99874.66;5077495;28;20055;-44
2023/04/24 07:14:36;;;;;;;0.30;0.30;;;;;;;18.85;44.75;99883.75;5093502;27;20081;-45
2023/04/24 07:17:03;;;;;;;0.20;0.20;;;;;;;18.84;44.83;99876.63;5081294;27;20043;-45
2023/04/24 07:19:29;;;;;;;0.20;0.20;;;;;;;18.83;44.91;99883.25;5078476;28;20043;-45
2023/04/24 07:21:55;;;;;;;0.22;0.22;;;;;;;18.84;44.73;99880.19;5095534;27;20057;-45
2023/04/24 07:24:20;;;;;;;0.30;0.30;;;;;;;18.85;45.05;99886.53;5092799;27;20105;-47
2023/04/24 07:26:48;;;;;;;0.20;0.20;;;;;;;18.84;44.88;99882.94;5099421;27;20085;-45
2023/04/24 07:29:14;;;;;;;0.20;0.20;;;;;;;18.84;44.81;99901.44;5105732;27;20050;-46
2023/04/24 07:31:41;;;;;;;0.20;0.20;;;;;;;18.83;44.86;99903.38;5106972;27;20074;-44
2023/04/24 07:34:06;;;;;;;0.20;0.20;;;;;;;18.84;44.72;99904.19;5102343;27;20059;-45
2023/04/24 07:36:32;;;;;;;0.20;0.20;;;;;;;18.84;44.85;99912.47;5111118;27;20116;-46
2023/04/24 07:38:58;;;;;;;0.20;0.20;;;;;;;18.85;44.97;99900.31;5108681;27;20121;-45
2023/04/24 07:41:24;;;;;;;0.30;0.30;;;;;;;18.85;44.71;99906.63;5106766;27;20454;-45
2023/04/24 07:43:50;;;;;;;0.30;0.30;;;;;;;18.85;44.90;99897.56;5089583;27;20062;-44
2023/04/24 07:46:16;;;;;;;0.20;0.20;;;;;;;18.85;44.67;99900.31;5106203;27;20292;-45
2023/04/24 07:48:42;;;;;;;0.25;0.25;;;;;;;18.85;44.62;99909.41;5106486;27;20361;-45
2023/04/24 07:51:10;;;;;;;0.22;0.22;;;;;;;18.85;44.94;99905.81;5109395;27;20039;-46
2023/04/24 07:53:36;;;;;;;0.20;0.20;;;;;;;18.84;45.00;99896.75;5108483;28;20124;-45
2023/04/24 07:56:02;;;;;;;0.20;0.20;;;;;;;18.85;44.48;99897.56;5109878;27;20138;-45
2023/04/24 07:58:27;;;;;;;0.20;0.20;;;;;;;18.83;46.41;99897.88;5104720;27;20039;-45
2023/04/24 08:00:53;;;;;;;0.20;0.20;;;;;;;18.86;45.30;99897.25;5108052;27;20039;-48
2023/04/24 08:03:19;;;;;;;0.20;0.20;;;;;;;18.88;45.08;99910.75;5100536;27;20466;-44
2023/04/24 08:05:45;;;;;;;0.20;0.20;;;;;;;18.87;45.30;99911.84;5097660;27;20124;-45
2023/04/24 08:08:11;;;;;;;0.20;0.20;;;;;;;18.88;45.65;99908.00;5064674;28;20096;-46
2023/04/24 08:10:37;;;;;;;0.20;0.20;;;;;;;18.88;45.24;99908.81;5091705;27;20039;-46
2023/04/24 08:13:02;;;;;;;0.30;0.30;;;;;;;18.87;45.32;99920.97;5097860;27;20358;-45
2023/04/24 08:15:28;;;;;;;0.40;0.40;;;;;;;18.90;47.66;99916.75;5099485;28;20606;-46
2023/04/24 08:17:54;;;;;;;0.30;0.30;;;;;;;18.91;45.84;99932.19;5096310;27;20153;-46
2023/04/24 08:20:21;;;;;;;0.20;0.20;;;;;;;18.91;45.96;99940.47;5093901;27;20066;-46
2023/04/24 08:22:48;;;;;;;0.20;0.20;;;;;;;18.91;46.35;99944.06;5100928;27;20515;-42
2023/04/24 08:25:14;;;;;;;0.20;0.20;;;;;;;18.93;48.58;99957.56;5104451;27;20252;-44
2023/04/24 08:27:40;;;;;;;0.20;0.20;;;;;;;18.94;46.76;99972.97;5080657;28;20069;-45
2023/04/24 08:30:06;;;;;;;0.20;0.20;;;;;;;18.95;48.42;99972.66;5097251;27;20548;-45
2023/04/24 08:32:32;;;;;;;0.20;0.20;;;;;;;18.94;46.81;99976.56;5096968;27;20073;-46
2023/04/24 08:34:58;;;;;;;0.20;0.20;;;;;;;18.95;47.43;99975.41;5088983;28;20463;-45
2023/04/24 08:37:25;;;;;;;0.30;0.30;;;;;;;18.95;46.57;99982.88;5072964;28;20070;-44
2023/04/24 08:39:51;;;;;;;0.30;0.30;;;;;;;18.94;46.28;99993.09;5096126;28;20070;-44
2023/04/24 08:42:18;;;;;;;0.20;0.20;;;;;;;18.94;47.54;99995.88;5086478;28;20074;-46
2023/04/24 08:44:44;;;;;;;0.20;0.20;;;;;;;18.97;46.69;100003.53;5082303;28;20116;-44
2023/04/24 08:47:10;;;;;;;0.20;0.20;;;;;;;18.99;47.05;100020.59;5107980;27;20176;-46
2023/04/24 08:49:37;;;;;;;0.20;0.20;;;;;;;19.00;46.96;100025.03;5085395;28;20177;-46
2023/04/24 08:52:03;;;;;;;0.30;0.30;;;;;;;18.99;47.12;100028.06;5085513;28;20537;-48
2023/04/24 08:54:29;;;;;;;0.20;0.20;;;;;;;18.99;47.58;100039.09;5106149;28;20433;-47
2023/04/24 08:56:58;;;;;;;0.30;0.30;;;;;;;19.00;47.02;100057.31;5105520;27;20047;-49
2023/04/24 08:59:24;;;;;;;0.20;0.20;;;;;;;18.99;46.82;100061.19;5089537;28;20194;-47
2023/04/24 09:01:51;;;;;;;0.20;0.20;;;;;;;18.98;46.73;100057.59;5110937;28;20133;-47
2023/04/24 09:04:19;;;;;;;0.20;0.20;;;;;;;18.98;46.55;100071.41;5081029;28;20093;-46
2023/04/24 09:06:45;;;;;;;0.22;0.22;;;;;;;19.00;47.33;100076.63;5110160;28;20053;-45
2023/04/24 09:09:11;;;;;;;0.20;0.20;;;;;;;19.01;46.89;100079.09;5089970;28;20043;-46
2023/04/24 09:11:37;;;;;;;0.20;0.20;;;;;;;19.00;46.92;100094.00;5103224;27;20058;-48
2023/04/24 09:14:03;;;;;;;0.20;0.20;;;;;;;19.01;46.74;100092.06;5083910;28;20668;-46
2023/04/24 09:16:29;;;;;;;0.20;0.20;;;;;;;19.02;47.04;100107.50;5110902;28;20704;-52
2023/04/24 09:18:55;;;;;;;0.20;0.20;;;;;;;19.02;47.23;100097.28;5108095;28;20359;-48
2023/04/24 09:21:23;;;;;;;0.30;0.30;;;;;;;19.01;46.63;100119.66;5105316;28;20182;-46
2023/04/24 09:23:59;;;;;;;0.20;0.20;;;;;;;19.01;46.69;100127.94;5084985;28;20228;-47
2023/04/24 09:26:25;;;;;;;0.20;0.20;;;;;;;19.02;47.35;100124.88;5083792;28;20106;-46
2023/04/24 09:28:51;;;;;;;0.20;0.20;;;;;;;19.02;46.94;100133.16;5096713;27;20047;-45
2023/04/24 09:31:21;;;;;;;0.20;0.20;;;;;;;19.03;47.32;100140.31;5092692;27;20575;-44
2023/04/24 09:33:56;;;;;;;0.20;0.20;;;;;;;19.04;47.52;100138.34;5081535;28;20146;-46
2023/04/24 09:36:32;;;;;;;0.30;0.30;;;;;;;19.04;48.19;100172.31;5070616;28;20790;-45
2023/04/24 09:39:02;;;;;;;0.20;0.20;;;;;;;19.04;48.47;100155.75;5074650;28;20058;-45
2023/04/24 09:41:28;;;;;;;0.30;0.30;;;;;;;19.03;48.30;100156.03;5103452;28;20054;-46
2023/04/24 09:43:55;;;;;;;0.20;0.20;;;;;;;19.04;48.13;100168.72;5103390;28;20062;-45
2023/04/24 09:46:22;;;;;;;0.20;0.20;;;;;;;19.05;47.79;100185.00;5094391;27;20507;-46
2023/04/24 09:48:48;;;;;;;0.30;0.30;;;;;;;19.06;47.69;100174.78;5102834;27;20038;-46
2023/04/24 09:51:15;;;;;;;0.20;0.20;;;;;;;19.07;47.97;100186.63;5107248;28;20043;-48
2023/04/24 09:53:46;;;;;;;0.20;0.20;;;;;;;19.05;47.74;100187.75;5102482;27;20133;-49
2023/04/24 09:56:12;;;;;;;0.20;0.20;;;;;;;19.06;48.11;100185.81;5103631;27;20043;-45
2023/04/24 09:58:38;;;;;;;0.20;0.20;;;;;;;19.06;47.29;100196.84;5110730;28;20219;-49
2023/04/24 10:01:04;;;;;;;0.22;0.22;;;;;;;19.08;47.76;100204.81;5084055;28;20415;-47
2023/04/24 10:03:31;;;;;;;0.20;0.20;;;;;;;19.08;48.88;100202.06;5109608;27;20039;-45
2023/04/24 10:06:01;;;;;;;0.20;0.20;;;;;;;19.09;48.44;100204.53;5098507;27;20043;-45
2023/04/24 10:08:33;;;;;;;0.30;0.30;;;;;;;19.10;48.17;100206.19;5084409;28;20047;-45
2023/04/24 10:10:59;;;;;;;0.30;0.30;;;;;;;19.09;49.73;100214.78;5103147;28;20047;-46
2023/04/24 10:13:25;;;;;;;0.20;0.20;;;;;;;19.12;48.61;100214.16;5105026;27;20096;-49
2023/04/24 10:15:51;;;;;;;0.20;0.20;;;;;;;19.13;48.27;100221.31;5106216;28;20296;-44
2023/04/24 10:18:17;;;;;;;0.20;0.20;;;;;;;19.12;48.29;100222.44;5099496;27;20096;-46
2023/04/24 10:20:43;;;;;;;0.20;0.20;;;;;;;19.11;47.76;100231.84;5107843;28;20039;-46
2023/04/24 10:23:10;;;;;;;0.20;0.20;;;;;;;19.10;47.54;100232.97;5110607;28;20054;-45
2023/04/24 10:25:37;;;;;;;0.20;0.20;;;;;;;19.09;47.39;100225.81;5099536;28;20133;-45
2023/04/24 10:28:03;;;;;;;0.20;0.20;;;;;;;19.10;47.04;100230.19;5111103;27;20100;-45
2023/04/24 10:30:34;;;;;;;0.20;0.20;;;;;;;19.09;46.92;100237.66;5088477;28;20047;-45
2023/04/24 10:33:01;;;;;;;0.20;0.20;;;;;;;19.10;47.21;100244.81;5092702;28;20431;-48
2023/04/24 10:35:30;;;;;;;0.30;0.30;;;;;;;19.09;47.05;100256.97;5106250;27;20134;-44
2023/04/24 10:38:08;;;;;;;0.28;0.28;;;;;;;19.09;46.88;100258.94;5085656;28;20043;-45
2023/04/24 10:40:35;;;;;;;0.20;0.20;;;;;;;19.07;47.16;100256.44;5076250;28;20088;-45
2023/04/24 10:43:05;;;;;;;0.20;0.20;;;;;;;19.05;47.03;100259.50;5096339;27;20047;-46
2023/04/24 10:45:31;;;;;;;0.30;0.30;;;;;;;19.07;47.53;100272.19;5102573;28;20044;-46
2023/04/24 10:48:01;;;;;;;0.20;0.20;;;;;;;19.07;47.14;100275.75;5106040;28;20043;-45
2023/04/24 10:50:42;;;;;;;0.30;0.30;;;;;;;19.04;47.39;100273.59;5103688;27;20356;-44
2023/04/24 10:53:15;;;;;;;0.20;0.20;;;;;;;19.05;47.08;100275.25;5104560;28;20081;-48
2023/04/24 10:55:45;;;;;;;0.30;0.30;;;;;;;19.05;46.99;100272.50;5095421;28;20051;-47
2023/04/24 10:58:11;;;;;;;0.20;0.20;;;;;;;19.07;47.28;100277.69;5093747;28;20050;-47
2023/04/24 11:00:39;;;;;;;0.30;0.30;;;;;;;19.08;46.84;100293.13;5097310;27;20051;-47
2023/04/24 11:03:06;;;;;;;0.28;0.28;;;;;;;19.07;47.16;100289.56;5092871;28;20047;-48
2023/04/24 11:06:00;;;;;;;0.30;0.30;;;;;;;19.08;47.59;100293.13;5112979;28;20047;-47
2023/04/24 11:08:46;;;;;;;0.30;0.30;;;;;;;19.10;47.58;100296.44;5063053;28;20050;-45
2023/04/24 11:11:14;;;;;;;0.25;0.25;;;;;;;19.10;47.46;100307.47;5115688;28;20066;-48
2023/04/24 11:16:39;;;;;;;0.30;0.30;;;;;;;19.11;47.60;100311.88;5143035;27;20121;-43
2023/04/24 11:19:07;;;;;;;0.20;0.20;;;;;;;19.14;47.13;100303.81;5105749;27;20051;-44
2023/04/24 11:21:55;;;;;;;0.20;0.20;;;;;;;19.17;47.68;100316.19;5109463;27;20046;-47
2023/04/24 11:24:31;;;;;;;0.20;0.20;;;;;;;19.16;47.52;100320.91;5115947;27;20053;-45
2023/04/24 11:26:59;;;;;;;0.20;0.20;;;;;;;19.15;47.35;100319.25;5113191;27;20789;-46
2023/04/24 11:30:00;;;;;;;0.20;0.20;;;;;;;19.13;47.32;100321.50;5116384;27;20077;-48
2023/04/24 11:32:36;;;;;;;0.22;0.22;;;;;;;19.13;47.38;100328.94;5110652;27;20062;-46